sensor_id;sensor_type;location;lat;lon;timestamp;pressure;altitude;pressure_sealevel;temperature;humidity
63700;BME280;49845;47.130;142.766;2023-03-04T00:01:09;101550.41;;;-13.39;68.20
63700;BME280;49845;47.130;142.766;2023-03-04T00:03:40;101545.72;;;-13.27;68.71
63700;BME280;49845;47.130;142.766;2023-03-04T00:06:11;101541.69;;;-13.25;69.06
63700;BME280;49845;47.130;142.766;2023-03-04T00:08:43;101541.72;;;-13.08;69.66
63700;BME280;49845;47.130;142.766;2023-03-04T00:11:13;101536.09;;;-12.88;69.96
63700;BME280;49845;47.130;142.766;2023-03-04T00:13:44;101521.88;;;-12.96;69.84
63700;BME280;49845;47.130;142.766;2023-03-04T00:16:15;101535.81;;;-12.82;70.06
63700;BME280;49845;47.130;142.766;2023-03-04T00:18:45;101531.22;;;-12.60;70.05
63700;BME280;49845;47.130;142.766;2023-03-04T00:21:20;101520.06;;;-12.36;70.08
63700;BME280;49845;47.130;142.766;2023-03-04T00:23:53;101529.47;;;-12.07;69.75
63700;BME280;49845;47.130;142.766;2023-03-04T00:26:23;101525.75;;;-12.02;69.11
63700;BME280;49845;47.130;142.766;2023-03-04T00:28:54;101527.34;;;-11.94;69.29
63700;BME280;49845;47.130;142.766;2023-03-04T00:31:25;101520.44;;;-11.78;69.46
63700;BME280;49845;47.130;142.766;2023-03-04T00:33:55;101515.59;;;-11.57;68.81
63700;BME280;49845;47.130;142.766;2023-03-04T00:36:26;101518.47;;;-11.44;68.23
63700;BME280;49845;47.130;142.766;2023-03-04T00:38:58;101517.72;;;-11.15;68.15
63700;BME280;49845;47.130;142.766;2023-03-04T00:41:28;101521.25;;;-11.13;66.56
63700;BME280;49845;47.130;142.766;2023-03-04T00:43:59;101521.75;;;-11.17;66.36
63700;BME280;49845;47.130;142.766;2023-03-04T00:46:30;101506.41;;;-11.10;66.15
63700;BME280;49845;47.130;142.766;2023-03-04T00:49:00;101509.53;;;-10.94;66.36
63700;BME280;49845;47.130;142.766;2023-03-04T00:51:31;101511.97;;;-10.66;66.27
63700;BME280;49845;47.130;142.766;2023-03-04T00:54:03;101517.03;;;-10.66;66.30
63700;BME280;49845;47.130;142.766;2023-03-04T00:56:34;101513.50;;;-10.68;66.12
63700;BME280;49845;47.130;142.766;2023-03-04T00:59:04;101519.91;;;-10.53;66.44
63700;BME280;49845;47.130;142.766;2023-03-04T01:01:35;101490.38;;;-10.44;66.49
63700;BME280;49845;47.130;142.766;2023-03-04T01:04:06;101520.84;;;-10.03;66.38
63700;BME280;49845;47.130;142.766;2023-03-04T01:06:45;101520.91;;;-9.82;66.57
63700;BME280;49845;47.130;142.766;2023-03-04T01:09:17;101519.69;;;-9.36;66.25
63700;BME280;49845;47.130;142.766;2023-03-04T01:11:48;101515.63;;;-8.83;65.98
63700;BME280;49845;47.130;142.766;2023-03-04T01:14:19;101507.84;;;-8.32;65.27
63700;BME280;49845;47.130;142.766;2023-03-04T01:16:49;101511.16;;;-8.00;64.56
63700;BME280;49845;47.130;142.766;2023-03-04T01:19:20;101509.09;;;-7.72;63.95
63700;BME280;49845;47.130;142.766;2023-03-04T01:21:51;101492.88;;;-7.41;63.61
63700;BME280;49845;47.130;142.766;2023-03-04T01:24:24;101494.25;;;-7.22;62.38
63700;BME280;49845;47.130;142.766;2023-03-04T01:26:54;101448.00;;;-7.52;62.45
63700;BME280;49845;47.130;142.766;2023-03-04T01:29:25;101486.22;;;-7.05;62.54
63700;BME280;49845;47.130;142.766;2023-03-04T01:31:56;101448.34;;;-6.78;62.35
63700;BME280;49845;47.130;142.766;2023-03-04T01:34:27;101459.81;;;-6.72;61.03
63700;BME280;49845;47.130;142.766;2023-03-04T01:36:57;101481.06;;;-6.71;61.78
63700;BME280;49845;47.130;142.766;2023-03-04T01:39:48;101479.94;;;-6.39;62.40
63700;BME280;49845;47.130;142.766;2023-03-04T01:42:20;101472.59;;;-6.11;61.66
63700;BME280;49845;47.130;142.766;2023-03-04T01:44:52;101474.81;;;-6.16;61.92
63700;BME280;49845;47.130;142.766;2023-03-04T01:47:26;101471.22;;;-5.94;60.96
63700;BME280;49845;47.130;142.766;2023-03-04T01:49:58;101457.53;;;-5.83;59.71
63700;BME280;49845;47.130;142.766;2023-03-04T01:52:30;101469.72;;;-5.54;59.05
63700;BME280;49845;47.130;142.766;2023-03-04T01:55:08;101464.22;;;-5.22;58.83
63700;BME280;49845;47.130;142.766;2023-03-04T01:57:41;101463.88;;;-5.01;57.57
63700;BME280;49845;47.130;142.766;2023-03-04T02:00:22;101439.94;;;-5.03;57.28
63700;BME280;49845;47.130;142.766;2023-03-04T02:02:54;101443.97;;;-4.80;56.74
63700;BME280;49845;47.130;142.766;2023-03-04T02:05:27;101470.16;;;-4.56;55.82
63700;BME280;49845;47.130;142.766;2023-03-04T02:07:59;101474.09;;;-4.61;55.30
63700;BME280;49845;47.130;142.766;2023-03-04T02:10:32;101458.78;;;-4.48;55.84
63700;BME280;49845;47.130;142.766;2023-03-04T02:13:03;101469.56;;;-4.39;54.94
63700;BME280;49845;47.130;142.766;2023-03-04T02:15:34;101434.47;;;-4.56;55.77
63700;BME280;49845;47.130;142.766;2023-03-04T02:18:14;101449.16;;;-4.39;54.89
63700;BME280;49845;47.130;142.766;2023-03-04T02:20:53;101442.16;;;-4.28;55.59
63700;BME280;49845;47.130;142.766;2023-03-04T02:23:32;101451.84;;;-3.81;54.99
63700;BME280;49845;47.130;142.766;2023-03-04T02:26:17;101445.56;;;-3.58;53.63
63700;BME280;49845;47.130;142.766;2023-03-04T02:28:55;101454.38;;;-3.53;52.68
63700;BME280;49845;47.130;142.766;2023-03-04T02:31:29;101445.56;;;-3.58;52.00
63700;BME280;49845;47.130;142.766;2023-03-04T02:34:02;101431.06;;;-3.72;52.38
63700;BME280;49845;47.130;142.766;2023-03-04T02:36:37;101372.03;;;-4.06;53.67
63700;BME280;49845;47.130;142.766;2023-03-04T02:39:12;101424.63;;;-3.37;55.03
63700;BME280;49845;47.130;142.766;2023-03-04T02:41:46;101361.16;;;-3.44;53.19
63700;BME280;49845;47.130;142.766;2023-03-04T02:44:19;101437.84;;;-2.85;52.73
63700;BME280;49845;47.130;142.766;2023-03-04T02:46:50;101330.50;;;-3.44;52.10
63700;BME280;49845;47.130;142.766;2023-03-04T02:49:22;101418.06;;;-2.73;52.41
63700;BME280;49845;47.130;142.766;2023-03-04T02:51:59;101414.91;;;-2.52;52.52
63700;BME280;49845;47.130;142.766;2023-03-04T02:54:30;101372.22;;;-2.53;52.34
63700;BME280;49845;47.130;142.766;2023-03-04T02:57:04;101405.25;;;-2.10;51.47
63700;BME280;49845;47.130;142.766;2023-03-04T02:59:36;101311.72;;;-2.36;52.00
63700;BME280;49845;47.130;142.766;2023-03-04T03:02:07;101352.25;;;-1.95;51.56
63700;BME280;49845;47.130;142.766;2023-03-04T03:04:38;101395.91;;;-1.43;50.45
63700;BME280;49845;47.130;142.766;2023-03-04T03:07:10;101392.69;;;-1.39;50.03
63700;BME280;49845;47.130;142.766;2023-03-04T03:09:40;101395.72;;;-1.29;49.81
63700;BME280;49845;47.130;142.766;2023-03-04T03:12:12;101395.53;;;-1.16;49.26
63700;BME280;49845;47.130;142.766;2023-03-04T03:14:43;101356.09;;;-1.18;49.60
63700;BME280;49845;47.130;142.766;2023-03-04T03:17:13;101380.44;;;-0.74;51.20
63700;BME280;49845;47.130;142.766;2023-03-04T03:19:44;101376.03;;;-0.59;49.71
63700;BME280;49845;47.130;142.766;2023-03-04T03:22:15;101376.78;;;-0.79;48.29
63700;BME280;49845;47.130;142.766;2023-03-04T03:24:45;101379.94;;;-0.67;48.49
63700;BME280;49845;47.130;142.766;2023-03-04T03:27:18;101381.53;;;-0.69;47.92
63700;BME280;49845;47.130;142.766;2023-03-04T03:29:48;101365.31;;;-0.68;48.73
63700;BME280;49845;47.130;142.766;2023-03-04T03:32:19;101370.41;;;-0.50;48.43
63700;BME280;49845;47.130;142.766;2023-03-04T03:34:50;101360.72;;;-0.38;48.27
63700;BME280;49845;47.130;142.766;2023-03-04T03:37:20;101358.22;;;-0.36;47.66
63700;BME280;49845;47.130;142.766;2023-03-04T03:39:51;101364.97;;;-0.38;45.97
63700;BME280;49845;47.130;142.766;2023-03-04T03:42:23;101352.16;;;-0.19;47.27
63700;BME280;49845;47.130;142.766;2023-03-04T03:44:54;101364.59;;;-0.09;47.63
63700;BME280;49845;47.130;142.766;2023-03-04T03:47:25;101353.91;;;0.21;46.04
63700;BME280;49845;47.130;142.766;2023-03-04T03:49:55;101359.28;;;0.47;45.28
63700;BME280;49845;47.130;142.766;2023-03-04T03:52:29;101366.66;;;0.60;46.03
63700;BME280;49845;47.130;142.766;2023-03-04T03:55:00;101353.97;;;0.63;44.71
63700;BME280;49845;47.130;142.766;2023-03-04T03:57:32;101334.06;;;0.59;45.48
63700;BME280;49845;47.130;142.766;2023-03-04T04:00:04;101353.56;;;0.75;44.22
63700;BME280;49845;47.130;142.766;2023-03-04T04:02:35;101354.47;;;0.75;43.73
63700;BME280;49845;47.130;142.766;2023-03-04T04:05:07;101337.50;;;0.59;44.04
63700;BME280;49845;47.130;142.766;2023-03-04T04:07:38;101326.59;;;0.23;44.08
63700;BME280;49845;47.130;142.766;2023-03-04T04:10:10;101326.47;;;-0.19;44.81
63700;BME280;49845;47.130;142.766;2023-03-04T04:12:42;101331.75;;;-0.16;46.19
63700;BME280;49845;47.130;142.766;2023-03-04T04:15:13;101325.72;;;0.23;46.45
63700;BME280;49845;47.130;142.766;2023-03-04T04:17:44;101319.13;;;0.29;46.37
63700;BME280;49845;47.130;142.766;2023-03-04T04:20:14;101314.28;;;0.16;45.92
63700;BME280;49845;47.130;142.766;2023-03-04T04:22:45;101321.88;;;0.13;45.63
63700;BME280;49845;47.130;142.766;2023-03-04T04:25:16;101311.47;;;-0.10;44.70
63700;BME280;49845;47.130;142.766;2023-03-04T04:27:48;101311.72;;;-0.04;46.03
63700;BME280;49845;47.130;142.766;2023-03-04T04:30:19;101299.03;;;-0.20;45.46
63700;BME280;49845;47.130;142.766;2023-03-04T04:32:50;101297.25;;;-0.21;45.75
63700;BME280;49845;47.130;142.766;2023-03-04T04:35:20;101309.97;;;-0.05;47.35
63700;BME280;49845;47.130;142.766;2023-03-04T04:37:51;101297.34;;;0.21;46.68
63700;BME280;49845;47.130;142.766;2023-03-04T04:40:22;101256.94;;;-0.03;45.11
63700;BME280;49845;47.130;142.766;2023-03-04T04:42:54;101289.22;;;0.31;45.38
63700;BME280;49845;47.130;142.766;2023-03-04T04:45:26;101290.59;;;0.23;46.13
63700;BME280;49845;47.130;142.766;2023-03-04T04:47:57;101281.06;;;0.20;46.03
63700;BME280;49845;47.130;142.766;2023-03-04T04:50:27;101287.19;;;0.24;45.39
63700;BME280;49845;47.130;142.766;2023-03-04T04:52:59;101289.72;;;0.23;46.23
63700;BME280;49845;47.130;142.766;2023-03-04T04:55:30;101290.31;;;0.17;45.36
63700;BME280;49845;47.130;142.766;2023-03-04T04:58:04;101286.69;;;0.12;45.66
63700;BME280;49845;47.130;142.766;2023-03-04T05:00:35;101286.56;;;0.09;45.21
63700;BME280;49845;47.130;142.766;2023-03-04T05:03:06;101277.94;;;0.28;45.59
63700;BME280;49845;47.130;142.766;2023-03-04T05:05:37;101276.91;;;0.66;46.04
63700;BME280;49845;47.130;142.766;2023-03-04T05:08:07;101292.69;;;0.96;44.70
63700;BME280;49845;47.130;142.766;2023-03-04T05:10:38;101290.28;;;1.01;44.56
63700;BME280;49845;47.130;142.766;2023-03-04T05:13:10;101288.41;;;0.97;44.21
63700;BME280;49845;47.130;142.766;2023-03-04T05:15:40;101297.13;;;0.78;43.71
63700;BME280;49845;47.130;142.766;2023-03-04T05:18:11;101304.25;;;0.64;46.08
63700;BME280;49845;47.130;142.766;2023-03-04T05:20:42;101298.00;;;0.36;44.57
63700;BME280;49845;47.130;142.766;2023-03-04T05:23:13;101291.91;;;0.13;44.64
63700;BME280;49845;47.130;142.766;2023-03-04T05:25:43;101295.69;;;0.02;44.17
63700;BME280;49845;47.130;142.766;2023-03-04T05:28:16;101241.63;;;-0.20;45.06
63700;BME280;49845;47.130;142.766;2023-03-04T05:30:47;101303.19;;;-0.03;45.49
63700;BME280;49845;47.130;142.766;2023-03-04T05:33:18;101275.50;;;-0.10;45.55
63700;BME280;49845;47.130;142.766;2023-03-04T05:35:49;101295.13;;;0.09;45.55
63700;BME280;49845;47.130;142.766;2023-03-04T05:38:21;101308.84;;;0.29;45.26
63700;BME280;49845;47.130;142.766;2023-03-04T05:40:56;101293.69;;;0.35;45.83
63700;BME280;49845;47.130;142.766;2023-03-04T05:43:29;101286.09;;;0.38;45.26
63700;BME280;49845;47.130;142.766;2023-03-04T05:46:03;101293.97;;;0.64;45.84
63700;BME280;49845;47.130;142.766;2023-03-04T05:48:36;101293.41;;;0.71;45.57
63700;BME280;49845;47.130;142.766;2023-03-04T05:51:08;101295.69;;;0.63;43.43
63700;BME280;49845;47.130;142.766;2023-03-04T05:53:40;101254.94;;;-0.10;40.89
63700;BME280;49845;47.130;142.766;2023-03-04T05:56:13;101300.63;;;-0.03;41.66
63700;BME280;49845;47.130;142.766;2023-03-04T05:58:45;101295.69;;;0.02;42.61
63700;BME280;49845;47.130;142.766;2023-03-04T06:01:16;101308.31;;;-0.03;42.85
63700;BME280;49845;47.130;142.766;2023-03-04T06:03:47;101298.09;;;-0.22;43.71
63700;BME280;49845;47.130;142.766;2023-03-04T06:06:18;101288.06;;;-0.35;44.37
63700;BME280;49845;47.130;142.766;2023-03-04T06:08:49;101291.47;;;-0.36;44.08
63700;BME280;49845;47.130;142.766;2023-03-04T06:11:19;101291.53;;;-0.54;44.26
63700;BME280;49845;47.130;142.766;2023-03-04T06:13:51;101291.97;;;-0.63;45.17
63700;BME280;49845;47.130;142.766;2023-03-04T06:16:25;101281.16;;;-0.75;45.31
63700;BME280;49845;47.130;142.766;2023-03-04T06:18:56;101244.13;;;-1.00;45.62
63700;BME280;49845;47.130;142.766;2023-03-04T06:21:26;101287.53;;;-0.85;45.64
63700;BME280;49845;47.130;142.766;2023-03-04T06:23:57;101286.31;;;-0.93;46.21
63700;BME280;49845;47.130;142.766;2023-03-04T06:26:28;101286.78;;;-1.02;44.86
63700;BME280;49845;47.130;142.766;2023-03-04T06:29:00;101292.50;;;-1.25;44.13
63700;BME280;49845;47.130;142.766;2023-03-04T06:31:30;101293.34;;;-1.43;44.69
63700;BME280;49845;47.130;142.766;2023-03-04T06:34:01;101307.59;;;-1.49;44.19
63700;BME280;49845;47.130;142.766;2023-03-04T06:36:32;101299.94;;;-1.48;44.99
63700;BME280;49845;47.130;142.766;2023-03-04T06:39:03;101306.06;;;-1.62;44.63
63700;BME280;49845;47.130;142.766;2023-03-04T06:41:34;101306.59;;;-1.69;46.38
63700;BME280;49845;47.130;142.766;2023-03-04T06:44:07;101301.09;;;-1.77;46.94
63700;BME280;49845;47.130;142.766;2023-03-04T06:46:37;101303.25;;;-1.85;46.00
63700;BME280;49845;47.130;142.766;2023-03-04T06:49:08;101308.69;;;-1.95;45.81
63700;BME280;49845;47.130;142.766;2023-03-04T06:51:39;101309.53;;;-1.96;46.37
63700;BME280;49845;47.130;142.766;2023-03-04T06:54:10;101249.69;;;-2.31;46.24
63700;BME280;49845;47.130;142.766;2023-03-04T06:56:40;101286.47;;;-2.12;46.04
63700;BME280;49845;47.130;142.766;2023-03-04T06:59:13;101311.94;;;-2.15;46.61
63700;BME280;49845;47.130;142.766;2023-03-04T07:01:44;101312.50;;;-2.21;46.92
63700;BME280;49845;47.130;142.766;2023-03-04T07:04:14;101308.09;;;-2.24;46.79
63700;BME280;49845;47.130;142.766;2023-03-04T07:06:45;101150.88;;;-3.27;46.32
63700;BME280;49845;47.130;142.766;2023-03-04T07:09:16;101292.03;;;-2.54;47.37
63700;BME280;49845;47.130;142.766;2023-03-04T07:11:47;101308.41;;;-2.50;47.00
63700;BME280;49845;47.130;142.766;2023-03-04T07:14:19;101248.25;;;-2.91;48.55
63700;BME280;49845;47.130;142.766;2023-03-04T07:16:50;101311.13;;;-2.47;49.20
63700;BME280;49845;47.130;142.766;2023-03-04T07:19:21;101304.25;;;-2.48;48.98
63700;BME280;49845;47.130;142.766;2023-03-04T07:21:52;101298.16;;;-2.50;49.62
63700;BME280;49845;47.130;142.766;2023-03-04T07:24:22;101290.81;;;-2.61;49.54
63700;BME280;49845;47.130;142.766;2023-03-04T07:26:53;101306.00;;;-2.64;49.72
63700;BME280;49845;47.130;142.766;2023-03-04T07:29:25;101296.84;;;-2.75;49.50
63700;BME280;49845;47.130;142.766;2023-03-04T07:31:56;101300.31;;;-2.74;50.63
63700;BME280;49845;47.130;142.766;2023-03-04T07:34:27;101306.78;;;-2.81;50.58
63700;BME280;49845;47.130;142.766;2023-03-04T07:36:57;101248.00;;;-3.27;50.48
63700;BME280;49845;47.130;142.766;2023-03-04T07:39:28;101311.25;;;-3.08;50.49
63700;BME280;49845;47.130;142.766;2023-03-04T07:41:59;101314.97;;;-3.18;51.06
63700;BME280;49845;47.130;142.766;2023-03-04T07:44:31;101309.16;;;-3.30;50.96
63700;BME280;49845;47.130;142.766;2023-03-04T07:47:02;101316.94;;;-3.43;50.91
63700;BME280;49845;47.130;142.766;2023-03-04T07:49:32;101303.47;;;-3.56;50.97
63700;BME280;49845;47.130;142.766;2023-03-04T07:52:04;101287.69;;;-3.93;51.27
63700;BME280;49845;47.130;142.766;2023-03-04T07:54:34;101309.00;;;-3.78;52.23
63700;BME280;49845;47.130;142.766;2023-03-04T07:57:05;101253.84;;;-4.34;52.52
63700;BME280;49845;47.130;142.766;2023-03-04T07:59:37;101308.81;;;-3.96;52.80
63700;BME280;49845;47.130;142.766;2023-03-04T08:02:09;101301.59;;;-4.03;53.23
63700;BME280;49845;47.130;142.766;2023-03-04T08:04:40;101313.59;;;-4.02;53.18
63700;BME280;49845;47.130;142.766;2023-03-04T08:07:10;101310.56;;;-4.09;53.22
63700;BME280;49845;47.130;142.766;2023-03-04T08:09:44;101308.34;;;-4.18;53.42
63700;BME280;49845;47.130;142.766;2023-03-04T08:12:20;101313.69;;;-4.28;53.35
63700;BME280;49845;47.130;142.766;2023-03-04T08:14:54;101191.72;;;-5.05;54.35
63700;BME280;49845;47.130;142.766;2023-03-04T08:17:24;101305.13;;;-4.57;54.84
63700;BME280;49845;47.130;142.766;2023-03-04T08:19:57;101304.19;;;-4.72;54.94
63700;BME280;49845;47.130;142.766;2023-03-04T08:22:27;101303.44;;;-4.85;55.38
63700;BME280;49845;47.130;142.766;2023-03-04T08:24:58;101286.81;;;-5.06;55.61
63700;BME280;49845;47.130;142.766;2023-03-04T08:27:28;101299.19;;;-4.99;56.43
63700;BME280;49845;47.130;142.766;2023-03-04T08:30:00;101292.47;;;-4.97;56.86
63700;BME280;49845;47.130;142.766;2023-03-04T08:32:31;101282.78;;;-5.03;57.27
63700;BME280;49845;47.130;142.766;2023-03-04T08:35:03;101286.63;;;-4.96;58.62
63700;BME280;49845;47.130;142.766;2023-03-04T08:37:33;101291.72;;;-5.09;57.90
63700;BME280;49845;47.130;142.766;2023-03-04T08:40:05;101289.75;;;-5.27;57.48
63700;BME280;49845;47.130;142.766;2023-03-04T08:42:36;101182.69;;;-5.96;58.08
63700;BME280;49845;47.130;142.766;2023-03-04T08:45:16;101304.88;;;-5.43;57.74
63700;BME280;49845;47.130;142.766;2023-03-04T08:47:52;101291.13;;;-5.45;58.43
63700;BME280;49845;47.130;142.766;2023-03-04T08:50:25;101296.84;;;-5.36;59.79
63700;BME280;49845;47.130;142.766;2023-03-04T08:53:01;101284.59;;;-5.42;59.10
63700;BME280;49845;47.130;142.766;2023-03-04T08:55:31;101297.59;;;-5.50;58.32
63700;BME280;49845;47.130;142.766;2023-03-04T08:58:02;101301.50;;;-5.69;57.83
63700;BME280;49845;47.130;142.766;2023-03-04T09:00:39;101306.00;;;-5.78;58.63
63700;BME280;49845;47.130;142.766;2023-03-04T09:03:11;101225.84;;;-6.36;58.74
63700;BME280;49845;47.130;142.766;2023-03-04T09:05:45;101296.88;;;-6.01;59.31
63700;BME280;49845;47.130;142.766;2023-03-04T09:08:16;101268.69;;;-6.29;58.96
63700;BME280;49845;47.130;142.766;2023-03-04T09:10:51;101324.56;;;-6.05;59.45
63700;BME280;49845;47.130;142.766;2023-03-04T09:13:24;101309.81;;;-6.23;59.95
63700;BME280;49845;47.130;142.766;2023-03-04T09:15:57;101327.47;;;-6.13;61.33
63700;BME280;49845;47.130;142.766;2023-03-04T09:18:29;101334.09;;;-6.15;61.04
63700;BME280;49845;47.130;142.766;2023-03-04T09:21:00;101331.91;;;-6.22;60.91
63700;BME280;49845;47.130;142.766;2023-03-04T09:23:35;101331.50;;;-6.28;61.04
63700;BME280;49845;47.130;142.766;2023-03-04T09:26:18;101332.88;;;-6.33;61.61
63700;BME280;49845;47.130;142.766;2023-03-04T09:28:52;101334.22;;;-6.38;61.04
63700;BME280;49845;47.130;142.766;2023-03-04T09:31:28;101354.56;;;-6.38;60.91
63700;BME280;49845;47.130;142.766;2023-03-04T09:33:58;101366.06;;;-6.43;60.58
63700;BME280;49845;47.130;142.766;2023-03-04T09:36:29;101364.09;;;-6.47;60.69
63700;BME280;49845;47.130;142.766;2023-03-04T09:39:02;101365.63;;;-6.49;61.35
63700;BME280;49845;47.130;142.766;2023-03-04T09:41:41;101367.41;;;-6.48;61.92
63700;BME280;49845;47.130;142.766;2023-03-04T09:44:20;101334.25;;;-6.62;62.04
63700;BME280;49845;47.130;142.766;2023-03-04T09:46:54;101362.09;;;-6.52;61.78
63700;BME280;49845;47.130;142.766;2023-03-04T09:49:28;101342.22;;;-6.69;61.77
63700;BME280;49845;47.130;142.766;2023-03-04T09:52:04;101295.03;;;-7.14;61.95
63700;BME280;49845;47.130;142.766;2023-03-04T09:55:03;101360.16;;;-6.79;62.67
63700;BME280;49845;47.130;142.766;2023-03-04T09:57:46;101340.63;;;-6.80;63.04
63700;BME280;49845;47.130;142.766;2023-03-04T10:00:39;101337.75;;;-6.85;63.37
63700;BME280;49845;47.130;142.766;2023-03-04T10:03:17;101338.97;;;-6.91;63.53
63700;BME280;49845;47.130;142.766;2023-03-04T10:06:00;101340.53;;;-6.93;64.10
63700;BME280;49845;47.130;142.766;2023-03-04T10:08:37;101249.34;;;-7.38;65.09
63700;BME280;49845;47.130;142.766;2023-03-04T10:11:14;101325.50;;;-6.79;66.18
63700;BME280;49845;47.130;142.766;2023-03-04T10:17:00;101320.19;;;-6.20;67.73
63700;BME280;49845;47.130;142.766;2023-03-04T10:19:51;101303.78;;;-6.12;67.93
63700;BME280;49845;47.130;142.766;2023-03-04T10:22:29;101311.03;;;-6.04;67.78
63700;BME280;49845;47.130;142.766;2023-03-04T10:25:16;101332.69;;;-5.98;67.84
63700;BME280;49845;47.130;142.766;2023-03-04T10:27:52;101337.13;;;-5.95;67.75
63700;BME280;49845;47.130;142.766;2023-03-04T10:30:33;101286.75;;;-6.13;67.96
63700;BME280;49845;47.130;142.766;2023-03-04T10:33:11;101311.84;;;-6.05;67.34
63700;BME280;49845;47.130;142.766;2023-03-04T10:35:46;101317.22;;;-6.01;67.54
63700;BME280;49845;47.130;142.766;2023-03-04T10:38:19;101322.00;;;-5.92;67.54
63700;BME280;49845;47.130;142.766;2023-03-04T10:40:50;101312.41;;;-6.10;66.98
63700;BME280;49845;47.130;142.766;2023-03-04T10:43:21;101309.69;;;-5.99;67.54
63700;BME280;49845;47.130;142.766;2023-03-04T10:45:55;101301.09;;;-6.01;67.06
63700;BME280;49845;47.130;142.766;2023-03-04T10:48:30;101301.63;;;-6.19;67.39
63700;BME280;49845;47.130;142.766;2023-03-04T10:51:15;101317.09;;;-6.16;67.09
63700;BME280;49845;47.130;142.766;2023-03-04T10:53:49;101286.44;;;-6.42;67.07
63700;BME280;49845;47.130;142.766;2023-03-04T10:56:37;101314.47;;;-6.29;67.50
63700;BME280;49845;47.130;142.766;2023-03-04T10:59:32;101331.91;;;-6.22;67.62
63700;BME280;49845;47.130;142.766;2023-03-04T11:02:20;101328.84;;;-6.30;67.46
63700;BME280;49845;47.130;142.766;2023-03-04T11:05:15;101327.34;;;-6.39;67.32
63700;BME280;49845;47.130;142.766;2023-03-04T11:08:00;101280.84;;;-6.87;66.94
63700;BME280;49845;47.130;142.766;2023-03-04T11:10:39;101327.91;;;-6.80;66.97
63700;BME280;49845;47.130;142.766;2023-03-04T11:13:14;101335.22;;;-6.97;67.16
63700;BME280;49845;47.130;142.766;2023-03-04T11:15:52;101350.59;;;-7.30;66.66
63700;BME280;49845;47.130;142.766;2023-03-04T11:18:34;101338.09;;;-7.51;67.22
63700;BME280;49845;47.130;142.766;2023-03-04T11:21:17;101334.75;;;-7.73;67.23
63700;BME280;49845;47.130;142.766;2023-03-04T11:24:02;101319.69;;;-7.94;67.69
63700;BME280;49845;47.130;142.766;2023-03-04T11:26:47;101189.00;;;-8.70;68.37
63700;BME280;49845;47.130;142.766;2023-03-04T11:29:22;101309.09;;;-8.00;68.95
63700;BME280;49845;47.130;142.766;2023-03-04T11:32:00;101310.63;;;-8.02;69.26
63700;BME280;49845;47.130;142.766;2023-03-04T11:34:37;101313.25;;;-8.12;68.93
63700;BME280;49845;47.130;142.766;2023-03-04T11:37:15;101253.59;;;-8.64;69.57
63700;BME280;49845;47.130;142.766;2023-03-04T11:40:22;101250.81;;;-8.68;70.54
63700;BME280;49845;47.130;142.766;2023-03-04T11:43:27;101328.06;;;-8.29;70.83
63700;BME280;49845;47.130;142.766;2023-03-04T11:52:12;101323.47;;;-8.22;70.83
63700;BME280;49845;47.130;142.766;2023-03-04T11:55:02;101323.06;;;-8.39;70.46
63700;BME280;49845;47.130;142.766;2023-03-04T11:57:44;101339.72;;;-8.64;69.99
63700;BME280;49845;47.130;142.766;2023-03-04T12:00:38;101338.78;;;-8.77;70.52
63700;BME280;49845;47.130;142.766;2023-03-04T12:06:12;101326.56;;;-8.93;71.01
63700;BME280;49845;47.130;142.766;2023-03-04T12:09:06;101320.94;;;-9.10;70.95
63700;BME280;49845;47.130;142.766;2023-03-04T12:11:56;101317.94;;;-9.27;71.38
63700;BME280;49845;47.130;142.766;2023-03-04T12:14:33;101324.81;;;-9.36;71.63
63700;BME280;49845;47.130;142.766;2023-03-04T12:17:36;101307.72;;;-9.39;72.71
63700;BME280;49845;47.130;142.766;2023-03-04T12:20:24;101308.63;;;-9.38;73.53
63700;BME280;49845;47.130;142.766;2023-03-04T12:23:06;101307.09;;;-9.36;74.38
63700;BME280;49845;47.130;142.766;2023-03-04T12:25:42;101313.41;;;-9.21;75.03
63700;BME280;49845;47.130;142.766;2023-03-04T12:28:25;101298.13;;;-9.00;75.90
63700;BME280;49845;47.130;142.766;2023-03-04T12:31:27;101296.28;;;-8.91;76.13
63700;BME280;49845;47.130;142.766;2023-03-04T12:34:24;101291.13;;;-8.93;76.11
63700;BME280;49845;47.130;142.766;2023-03-04T12:37:23;101284.34;;;-8.82;76.20
63700;BME280;49845;47.130;142.766;2023-03-04T12:40:17;101285.34;;;-8.58;77.46
63700;BME280;49845;47.130;142.766;2023-03-04T12:42:58;101272.63;;;-8.36;77.93
63700;BME280;49845;47.130;142.766;2023-03-04T12:45:39;101280.91;;;-8.27;77.92
63700;BME280;49845;47.130;142.766;2023-03-04T12:48:41;101273.78;;;-8.20;77.49
63700;BME280;49845;47.130;142.766;2023-03-04T12:51:30;101262.31;;;-8.15;78.13
63700;BME280;49845;47.130;142.766;2023-03-04T12:54:16;101275.59;;;-7.96;78.01
63700;BME280;49845;47.130;142.766;2023-03-04T12:57:02;101267.88;;;-7.86;77.83
63700;BME280;49845;47.130;142.766;2023-03-04T12:59:43;101265.03;;;-7.78;78.24
63700;BME280;49845;47.130;142.766;2023-03-04T13:02:44;101270.75;;;-7.69;77.77
63700;BME280;49845;47.130;142.766;2023-03-04T13:05:24;101259.94;;;-7.55;77.97
63700;BME280;49845;47.130;142.766;2023-03-04T13:08:05;101255.97;;;-7.40;78.04
63700;BME280;49845;47.130;142.766;2023-03-04T13:10:40;101236.53;;;-7.39;77.99
63700;BME280;49845;47.130;142.766;2023-03-04T13:13:36;101260.38;;;-7.25;77.66
63700;BME280;49845;47.130;142.766;2023-03-04T13:16:27;101259.03;;;-7.20;77.28
63700;BME280;49845;47.130;142.766;2023-03-04T13:19:01;101270.34;;;-7.28;76.88
63700;BME280;49845;47.130;142.766;2023-03-04T13:21:43;101241.84;;;-7.48;76.11